sensor_id;sensor_type;location;lat;lon;timestamp;P1;durP1;ratioP1;P2;durP2;ratioP2
40254;SDS011;25973;52.368;4.940;2023-03-23T00:00:43;4.72;;;2.10;;
40254;SDS011;25973;52.368;4.940;2023-03-23T00:03:09;5.15;;;2.15;;
40254;SDS011;25973;52.368;4.940;2023-03-23T00:05:34;8.30;;;2.65;;
40254;SDS011;25973;52.368;4.940;2023-03-23T00:08:02;4.80;;;2.17;;
40254;SDS011;25973;52.368;4.940;2023-03-23T00:10:28;12.23;;;3.08;;
40254;SDS011;25973;52.368;4.940;2023-03-23T00:12:58;7.43;;;3.15;;
40254;SDS011;25973;52.368;4.940;2023-03-23T00:15:27;6.43;;;2.67;;
40254;SDS011;25973;52.368;4.940;2023-03-23T00:17:58;4.30;;;2.00;;
40254;SDS011;25973;52.368;4.940;2023-03-23T00:20:28;7.30;;;2.70;;
40254;SDS011;25973;52.368;4.940;2023-03-23T00:23:05;5.55;;;2.58;;
40254;SDS011;25973;52.368;4.940;2023-03-23T00:25:31;7.93;;;2.10;;
40254;SDS011;25973;52.368;4.940;2023-03-23T00:27:57;7.55;;;2.00;;
40254;SDS011;25973;52.368;4.940;2023-03-23T00:30:23;3.78;;;2.00;;
40254;SDS011;25973;52.368;4.940;2023-03-23T00:32:49;6.93;;;2.15;;
40254;SDS011;25973;52.368;4.940;2023-03-23T00:35:15;6.97;;;2.15;;
40254;SDS011;25973;52.368;4.940;2023-03-23T00:37:42;6.90;;;1.88;;
40254;SDS011;25973;52.368;4.940;2023-03-23T00:40:08;8.90;;;1.90;;
40254;SDS011;25973;52.368;4.940;2023-03-23T00:42:35;4.45;;;1.63;;
40254;SDS011;25973;52.368;4.940;2023-03-23T00:45:01;4.35;;;1.77;;
40254;SDS011;25973;52.368;4.940;2023-03-23T00:47:27;5.13;;;2.47;;
40254;SDS011;25973;52.368;4.940;2023-03-23T00:49:53;5.25;;;2.15;;
40254;SDS011;25973;52.368;4.940;2023-03-23T00:52:21;5.78;;;2.53;;
40254;SDS011;25973;52.368;4.940;2023-03-23T00:54:47;5.05;;;1.40;;
40254;SDS011;25973;52.368;4.940;2023-03-23T00:57:13;8.60;;;2.25;;
40254;SDS011;25973;52.368;4.940;2023-03-23T00:59:38;3.58;;;2.08;;
40254;SDS011;25973;52.368;4.940;2023-03-23T01:02:05;5.50;;;1.92;;
40254;SDS011;25973;52.368;4.940;2023-03-23T01:04:30;5.35;;;2.03;;
40254;SDS011;25973;52.368;4.940;2023-03-23T01:06:56;5.57;;;1.70;;
40254;SDS011;25973;52.368;4.940;2023-03-23T01:09:22;3.05;;;1.25;;
40254;SDS011;25973;52.368;4.940;2023-03-23T01:11:49;3.20;;;1.60;;
40254;SDS011;25973;52.368;4.940;2023-03-23T01:14:16;4.63;;;1.52;;
40254;SDS011;25973;52.368;4.940;2023-03-23T01:16:43;8.32;;;1.73;;
40254;SDS011;25973;52.368;4.940;2023-03-23T01:19:09;6.38;;;2.00;;
40254;SDS011;25973;52.368;4.940;2023-03-23T01:21:35;3.35;;;1.58;;
40254;SDS011;25973;52.368;4.940;2023-03-23T01:24:01;4.63;;;1.40;;
40254;SDS011;25973;52.368;4.940;2023-03-23T01:26:27;4.07;;;1.98;;
40254;SDS011;25973;52.368;4.940;2023-03-23T01:28:53;5.18;;;1.85;;
40254;SDS011;25973;52.368;4.940;2023-03-23T01:31:21;2.85;;;1.50;;
40254;SDS011;25973;52.368;4.940;2023-03-23T01:33:49;7.50;;;1.52;;
40254;SDS011;25973;52.368;4.940;2023-03-23T01:36:20;5.10;;;1.63;;
40254;SDS011;25973;52.368;4.940;2023-03-23T01:38:48;7.30;;;1.50;;
40254;SDS011;25973;52.368;4.940;2023-03-23T01:41:16;6.28;;;1.23;;
40254;SDS011;25973;52.368;4.940;2023-03-23T01:46:34;3.90;;;1.40;;
40254;SDS011;25973;52.368;4.940;2023-03-23T01:49:23;7.13;;;1.38;;
40254;SDS011;25973;52.368;4.940;2023-03-23T01:51:52;3.05;;;1.20;;
40254;SDS011;25973;52.368;4.940;2023-03-23T01:54:21;4.90;;;1.20;;
40254;SDS011;25973;52.368;4.940;2023-03-23T01:56:59;5.63;;;1.30;;
40254;SDS011;25973;52.368;4.940;2023-03-23T01:59:27;4.40;;;1.17;;
40254;SDS011;25973;52.368;4.940;2023-03-23T02:01:54;2.35;;;1.05;;
40254;SDS011;25973;52.368;4.940;2023-03-23T02:04:20;3.08;;;1.25;;
40254;SDS011;25973;52.368;4.940;2023-03-23T02:06:47;7.03;;;2.13;;
40254;SDS011;25973;52.368;4.940;2023-03-23T02:09:13;3.45;;;0.88;;
40254;SDS011;25973;52.368;4.940;2023-03-23T02:11:42;2.70;;;1.00;;
40254;SDS011;25973;52.368;4.940;2023-03-23T02:14:07;3.40;;;1.50;;
40254;SDS011;25973;52.368;4.940;2023-03-23T02:19:47;5.72;;;1.10;;
40254;SDS011;25973;52.368;4.940;2023-03-23T02:22:39;3.55;;;1.20;;
40254;SDS011;25973;52.368;4.940;2023-03-23T02:25:46;2.83;;;1.02;;
40254;SDS011;25973;52.368;4.940;2023-03-23T02:31:02;4.20;;;1.60;;
40254;SDS011;25973;52.368;4.940;2023-03-23T02:33:35;3.80;;;1.02;;
40254;SDS011;25973;52.368;4.940;2023-03-23T02:39:14;4.88;;;0.90;;
40254;SDS011;25973;52.368;4.940;2023-03-23T02:41:58;3.80;;;1.25;;
40254;SDS011;25973;52.368;4.940;2023-03-23T02:44:31;7.55;;;1.20;;
40254;SDS011;25973;52.368;4.940;2023-03-23T02:47:00;2.38;;;0.90;;
40254;SDS011;25973;52.368;4.940;2023-03-23T02:49:31;2.55;;;1.20;;
40254;SDS011;25973;52.368;4.940;2023-03-23T02:52:01;3.83;;;1.15;;
40254;SDS011;25973;52.368;4.940;2023-03-23T02:54:34;3.08;;;1.10;;
40254;SDS011;25973;52.368;4.940;2023-03-23T02:57:01;6.80;;;1.13;;
40254;SDS011;25973;52.368;4.940;2023-03-23T02:59:27;6.80;;;1.38;;
40254;SDS011;25973;52.368;4.940;2023-03-23T03:04:40;7.38;;;1.48;;
40254;SDS011;25973;52.368;4.940;2023-03-23T03:09:58;8.30;;;1.33;;
40254;SDS011;25973;52.368;4.940;2023-03-23T03:14:56;3.90;;;1.30;;
40254;SDS011;25973;52.368;4.940;2023-03-23T03:17:32;2.53;;;1.00;;
40254;SDS011;25973;52.368;4.940;2023-03-23T03:20:02;7.85;;;1.15;;
40254;SDS011;25973;52.368;4.940;2023-03-23T03:22:35;3.15;;;1.40;;
40254;SDS011;25973;52.368;4.940;2023-03-23T03:25:07;6.03;;;1.08;;
40254;SDS011;25973;52.368;4.940;2023-03-23T03:27:34;9.68;;;1.27;;
40254;SDS011;25973;52.368;4.940;2023-03-23T03:30:01;7.18;;;1.30;;
40254;SDS011;25973;52.368;4.940;2023-03-23T03:32:35;4.15;;;1.40;;
40254;SDS011;25973;52.368;4.940;2023-03-23T03:35:05;5.03;;;1.00;;
40254;SDS011;25973;52.368;4.940;2023-03-23T03:37:34;5.93;;;1.33;;
40254;SDS011;25973;52.368;4.940;2023-03-23T03:40:03;4.60;;;1.02;;
40254;SDS011;25973;52.368;4.940;2023-03-23T03:42:35;11.27;;;1.35;;
40254;SDS011;25973;52.368;4.940;2023-03-23T03:45:02;5.80;;;1.20;;
40254;SDS011;25973;52.368;4.940;2023-03-23T03:47:28;4.15;;;1.13;;
40254;SDS011;25973;52.368;4.940;2023-03-23T03:49:53;7.75;;;1.40;;
40254;SDS011;25973;52.368;4.940;2023-03-23T03:52:19;7.50;;;1.33;;
40254;SDS011;25973;52.368;4.940;2023-03-23T03:54:44;4.30;;;1.40;;
40254;SDS011;25973;52.368;4.940;2023-03-23T03:57:11;4.22;;;1.20;;
40254;SDS011;25973;52.368;4.940;2023-03-23T03:59:37;4.32;;;1.10;;
40254;SDS011;25973;52.368;4.940;2023-03-23T04:02:02;9.35;;;1.85;;
40254;SDS011;25973;52.368;4.940;2023-03-23T04:04:28;8.43;;;1.33;;
40254;SDS011;25973;52.368;4.940;2023-03-23T04:06:54;6.45;;;1.55;;
40254;SDS011;25973;52.368;4.940;2023-03-23T04:09:20;6.72;;;0.82;;
40254;SDS011;25973;52.368;4.940;2023-03-23T04:11:46;7.30;;;1.35;;
40254;SDS011;25973;52.368;4.940;2023-03-23T04:14:11;6.40;;;1.60;;
40254;SDS011;25973;52.368;4.940;2023-03-23T04:16:37;9.50;;;1.85;;
40254;SDS011;25973;52.368;4.940;2023-03-23T04:19:03;7.75;;;1.80;;
40254;SDS011;25973;52.368;4.940;2023-03-23T04:21:28;5.32;;;1.15;;
40254;SDS011;25973;52.368;4.940;2023-03-23T04:23:57;6.85;;;1.30;;
40254;SDS011;25973;52.368;4.940;2023-03-23T04:26:24;6.57;;;1.20;;
40254;SDS011;25973;52.368;4.940;2023-03-23T04:28:56;3.03;;;1.02;;
40254;SDS011;25973;52.368;4.940;2023-03-23T04:31:23;4.50;;;1.45;;
40254;SDS011;25973;52.368;4.940;2023-03-23T04:33:49;5.78;;;1.90;;
40254;SDS011;25973;52.368;4.940;2023-03-23T04:36:17;7.43;;;1.55;;
40254;SDS011;25973;52.368;4.940;2023-03-23T04:38:44;6.15;;;1.27;;
40254;SDS011;25973;52.368;4.940;2023-03-23T04:41:10;4.28;;;1.73;;
40254;SDS011;25973;52.368;4.940;2023-03-23T04:43:36;9.68;;;1.38;;
40254;SDS011;25973;52.368;4.940;2023-03-23T04:46:06;10.30;;;2.10;;
40254;SDS011;25973;52.368;4.940;2023-03-23T04:48:35;16.63;;;1.92;;
40254;SDS011;25973;52.368;4.940;2023-03-23T04:51:04;4.20;;;1.40;;
40254;SDS011;25973;52.368;4.940;2023-03-23T04:53:30;6.05;;;1.30;;
40254;SDS011;25973;52.368;4.940;2023-03-23T04:55:56;9.63;;;2.28;;
40254;SDS011;25973;52.368;4.940;2023-03-23T04:58:22;11.30;;;1.85;;
40254;SDS011;25973;52.368;4.940;2023-03-23T05:00:49;8.40;;;1.42;;
40254;SDS011;25973;52.368;4.940;2023-03-23T05:03:19;14.20;;;2.42;;
40254;SDS011;25973;52.368;4.940;2023-03-23T05:05:45;10.18;;;1.70;;
40254;SDS011;25973;52.368;4.940;2023-03-23T05:08:22;8.43;;;1.52;;
40254;SDS011;25973;52.368;4.940;2023-03-23T05:10:52;15.20;;;2.38;;
40254;SDS011;25973;52.368;4.940;2023-03-23T05:13:20;11.25;;;2.10;;
40254;SDS011;25973;52.368;4.940;2023-03-23T05:15:46;20.10;;;2.67;;
40254;SDS011;25973;52.368;4.940;2023-03-23T05:18:12;14.90;;;2.35;;
40254;SDS011;25973;52.368;4.940;2023-03-23T05:20:39;14.40;;;1.98;;
40254;SDS011;25973;52.368;4.940;2023-03-23T05:23:06;16.30;;;2.03;;
40254;SDS011;25973;52.368;4.940;2023-03-23T05:25:33;8.55;;;2.10;;
40254;SDS011;25973;52.368;4.940;2023-03-23T05:28:04;18.17;;;1.88;;
40254;SDS011;25973;52.368;4.940;2023-03-23T05:30:31;16.58;;;1.90;;
40254;SDS011;25973;52.368;4.940;2023-03-23T05:32:57;17.13;;;2.50;;
40254;SDS011;25973;52.368;4.940;2023-03-23T05:35:22;11.57;;;1.45;;
40254;SDS011;25973;52.368;4.940;2023-03-23T05:37:48;12.77;;;1.73;;
40254;SDS011;25973;52.368;4.940;2023-03-23T05:40:13;13.95;;;1.63;;
40254;SDS011;25973;52.368;4.940;2023-03-23T05:42:39;16.48;;;2.08;;
40254;SDS011;25973;52.368;4.940;2023-03-23T05:45:10;8.77;;;1.73;;
40254;SDS011;25973;52.368;4.940;2023-03-23T05:47:37;14.07;;;1.55;;
40254;SDS011;25973;52.368;4.940;2023-03-23T05:50:04;8.68;;;1.75;;
40254;SDS011;25973;52.368;4.940;2023-03-23T05:52:31;16.10;;;1.85;;
40254;SDS011;25973;52.368;4.940;2023-03-23T05:54:57;13.40;;;2.10;;
40254;SDS011;25973;52.368;4.940;2023-03-23T05:57:24;14.45;;;2.00;;
40254;SDS011;25973;52.368;4.940;2023-03-23T05:59:49;11.07;;;1.90;;
40254;SDS011;25973;52.368;4.940;2023-03-23T06:02:15;15.00;;;2.42;;
40254;SDS011;25973;52.368;4.940;2023-03-23T06:04:40;16.55;;;2.28;;
40254;SDS011;25973;52.368;4.940;2023-03-23T06:07:06;14.88;;;2.85;;
40254;SDS011;25973;52.368;4.940;2023-03-23T06:09:37;12.38;;;2.33;;
40254;SDS011;25973;52.368;4.940;2023-03-23T06:12:03;22.42;;;2.25;;
40254;SDS011;25973;52.368;4.940;2023-03-23T06:14:29;24.45;;;3.35;;
40254;SDS011;25973;52.368;4.940;2023-03-23T06:16:56;23.40;;;2.25;;
40254;SDS011;25973;52.368;4.940;2023-03-23T06:19:21;20.23;;;3.17;;
40254;SDS011;25973;52.368;4.940;2023-03-23T06:21:47;12.60;;;2.42;;
40254;SDS011;25973;52.368;4.940;2023-03-23T06:24:13;13.20;;;2.17;;
40254;SDS011;25973;52.368;4.940;2023-03-23T06:26:40;12.93;;;2.60;;
40254;SDS011;25973;52.368;4.940;2023-03-23T06:29:09;17.60;;;2.38;;
40254;SDS011;25973;52.368;4.940;2023-03-23T06:31:44;12.75;;;2.22;;
40254;SDS011;25973;52.368;4.940;2023-03-23T06:34:14;21.83;;;2.83;;
40254;SDS011;25973;52.368;4.940;2023-03-23T06:36:40;23.70;;;2.33;;
40254;SDS011;25973;52.368;4.940;2023-03-23T06:39:08;19.05;;;3.08;;
40254;SDS011;25973;52.368;4.940;2023-03-23T06:41:34;17.10;;;2.60;;
40254;SDS011;25973;52.368;4.940;2023-03-23T06:44:00;18.10;;;3.28;;
40254;SDS011;25973;52.368;4.940;2023-03-23T06:46:26;21.20;;;3.22;;
40254;SDS011;25973;52.368;4.940;2023-03-23T06:48:53;29.92;;;3.03;;
40254;SDS011;25973;52.368;4.940;2023-03-23T06:51:19;21.13;;;2.67;;
40254;SDS011;25973;52.368;4.940;2023-03-23T06:53:45;22.38;;;3.58;;
40254;SDS011;25973;52.368;4.940;2023-03-23T06:56:11;29.10;;;3.17;;
40254;SDS011;25973;52.368;4.940;2023-03-23T06:58:37;26.15;;;4.18;;
40254;SDS011;25973;52.368;4.940;2023-03-23T07:01:03;16.77;;;2.35;;
40254;SDS011;25973;52.368;4.940;2023-03-23T07:03:30;24.70;;;4.55;;
40254;SDS011;25973;52.368;4.940;2023-03-23T07:05:56;22.13;;;3.13;;
40254;SDS011;25973;52.368;4.940;2023-03-23T07:08:23;16.52;;;2.42;;
40254;SDS011;25973;52.368;4.940;2023-03-23T07:10:52;13.77;;;3.05;;
40254;SDS011;25973;52.368;4.940;2023-03-23T07:13:19;23.55;;;2.92;;
40254;SDS011;25973;52.368;4.940;2023-03-23T07:15:45;17.63;;;2.45;;
40254;SDS011;25973;52.368;4.940;2023-03-23T07:18:11;37.25;;;4.22;;
40254;SDS011;25973;52.368;4.940;2023-03-23T07:20:37;16.30;;;2.60;;
40254;SDS011;25973;52.368;4.940;2023-03-23T07:23:03;24.65;;;3.38;;
40254;SDS011;25973;52.368;4.940;2023-03-23T07:25:32;18.15;;;2.67;;
40254;SDS011;25973;52.368;4.940;2023-03-23T07:27:59;12.52;;;2.42;;
40254;SDS011;25973;52.368;4.940;2023-03-23T07:30:26;16.33;;;3.75;;
40254;SDS011;25973;52.368;4.940;2023-03-23T07:32:52;27.50;;;4.07;;
40254;SDS011;25973;52.368;4.940;2023-03-23T07:35:18;20.52;;;2.63;;
40254;SDS011;25973;52.368;4.940;2023-03-23T07:37:43;28.67;;;6.25;;
40254;SDS011;25973;52.368;4.940;2023-03-23T07:40:10;18.00;;;2.70;;
40254;SDS011;25973;52.368;4.940;2023-03-23T07:42:42;24.10;;;3.20;;
40254;SDS011;25973;52.368;4.940;2023-03-23T07:45:10;12.57;;;2.03;;
40254;SDS011;25973;52.368;4.940;2023-03-23T07:47:37;23.70;;;2.45;;
40254;SDS011;25973;52.368;4.940;2023-03-23T07:50:03;16.92;;;2.40;;
40254;SDS011;25973;52.368;4.940;2023-03-23T07:52:29;18.33;;;3.05;;
40254;SDS011;25973;52.368;4.940;2023-03-23T07:54:56;17.58;;;2.80;;
40254;SDS011;25973;52.368;4.940;2023-03-23T07:57:21;15.15;;;3.45;;
40254;SDS011;25973;52.368;4.940;2023-03-23T07:59:47;16.80;;;2.42;;
40254;SDS011;25973;52.368;4.940;2023-03-23T08:02:13;16.83;;;3.13;;
40254;SDS011;25973;52.368;4.940;2023-03-23T08:04:39;17.15;;;2.78;;
40254;SDS011;25973;52.368;4.940;2023-03-23T08:07:05;15.13;;;2.10;;
40254;SDS011;25973;52.368;4.940;2023-03-23T08:09:31;9.38;;;1.85;;
40254;SDS011;25973;52.368;4.940;2023-03-23T08:11:56;21.60;;;2.28;;
40254;SDS011;25973;52.368;4.940;2023-03-23T08:14:22;14.60;;;2.05;;
40254;SDS011;25973;52.368;4.940;2023-03-23T08:16:51;19.58;;;2.22;;
40254;SDS011;25973;52.368;4.940;2023-03-23T08:19:17;14.77;;;2.00;;
40254;SDS011;25973;52.368;4.940;2023-03-23T08:21:42;14.25;;;2.63;;
40254;SDS011;25973;52.368;4.940;2023-03-23T08:24:08;16.08;;;1.73;;
40254;SDS011;25973;52.368;4.940;2023-03-23T08:26:33;15.82;;;2.22;;
40254;SDS011;25973;52.368;4.940;2023-03-23T08:28:59;9.73;;;1.55;;
40254;SDS011;25973;52.368;4.940;2023-03-23T08:31:25;10.57;;;1.73;;
40254;SDS011;25973;52.368;4.940;2023-03-23T08:33:52;9.93;;;1.58;;
40254;SDS011;25973;52.368;4.940;2023-03-23T08:36:18;9.32;;;1.88;;
40254;SDS011;25973;52.368;4.940;2023-03-23T08:38:44;12.13;;;2.13;;
40254;SDS011;25973;52.368;4.940;2023-03-23T08:41:10;11.27;;;1.40;;
40254;SDS011;25973;52.368;4.940;2023-03-23T08:43:36;12.98;;;1.70;;
40254;SDS011;25973;52.368;4.940;2023-03-23T08:46:02;10.55;;;1.60;;
40254;SDS011;25973;52.368;4.940;2023-03-23T08:48:33;7.03;;;1.70;;
40254;SDS011;25973;52.368;4.940;2023-03-23T08:51:00;9.93;;;2.60;;
40254;SDS011;25973;52.368;4.940;2023-03-23T08:53:26;13.18;;;2.72;;
40254;SDS011;25973;52.368;4.940;2023-03-23T08:55:55;8.50;;;1.60;;
40254;SDS011;25973;52.368;4.940;2023-03-23T08:58:21;7.28;;;2.10;;
40254;SDS011;25973;52.368;4.940;2023-03-23T09:00:47;11.90;;;1.77;;
40254;SDS011;25973;52.368;4.940;2023-03-23T09:03:13;8.25;;;1.92;;
40254;SDS011;25973;52.368;4.940;2023-03-23T09:05:40;13.43;;;1.85;;
40254;SDS011;25973;52.368;4.940;2023-03-23T09:08:10;13.32;;;1.55;;
40254;SDS011;25973;52.368;4.940;2023-03-23T09:10:37;13.20;;;2.17;;
40254;SDS011;25973;52.368;4.940;2023-03-23T09:13:04;11.13;;;1.80;;
40254;SDS011;25973;52.368;4.940;2023-03-23T09:15:30;11.50;;;1.80;;
40254;SDS011;25973;52.368;4.940;2023-03-23T09:17:56;14.00;;;1.60;;
40254;SDS011;25973;52.368;4.940;2023-03-23T09:20:23;12.88;;;2.20;;
40254;SDS011;25973;52.368;4.940;2023-03-23T09:22:51;11.02;;;1.83;;
40254;SDS011;25973;52.368;4.940;2023-03-23T09:25:19;9.70;;;1.58;;
40254;SDS011;25973;52.368;4.940;2023-03-23T09:27:48;12.65;;;1.90;;
40254;SDS011;25973;52.368;4.940;2023-03-23T09:30:18;13.52;;;1.77;;
40254;SDS011;25973;52.368;4.940;2023-03-23T09:32:45;19.02;;;2.25;;
40254;SDS011;25973;52.368;4.940;2023-03-23T09:35:13;12.10;;;1.95;;
40254;SDS011;25973;52.368;4.940;2023-03-23T09:37:39;6.40;;;2.58;;
40254;SDS011;25973;52.368;4.940;2023-03-23T09:40:06;15.80;;;2.55;;
40254;SDS011;25973;52.368;4.940;2023-03-23T09:54:26;12.80;;;2.65;;
40254;SDS011;25973;52.368;4.940;2023-03-23T09:56:59;10.70;;;1.60;;
40254;SDS011;25973;52.368;4.940;2023-03-23T10:02:27;9.20;;;1.67;;
40254;SDS011;25973;52.368;4.940;2023-03-23T10:05:03;14.45;;;1.90;;
40254;SDS011;25973;52.368;4.940;2023-03-23T10:07:52;12.52;;;2.50;;
40254;SDS011;25973;52.368;4.940;2023-03-23T10:10:19;6.63;;;1.30;;
40254;SDS011;25973;52.368;4.940;2023-03-23T10:12:51;10.63;;;1.92;;
40254;SDS011;25973;52.368;4.940;2023-03-23T10:15:26;23.00;;;2.83;;
40254;SDS011;25973;52.368;4.940;2023-03-23T10:17:57;12.10;;;1.80;;
40254;SDS011;25973;52.368;4.940;2023-03-23T10:20:56;14.32;;;2.33;;
40254;SDS011;25973;52.368;4.940;2023-03-23T10:23:33;12.10;;;1.70;;
40254;SDS011;25973;52.368;4.940;2023-03-23T10:28:51;17.20;;;1.88;;
40254;SDS011;25973;52.368;4.940;2023-03-23T10:33:54;14.82;;;1.95;;
40254;SDS011;25973;52.368;4.940;2023-03-23T10:36:24;14.48;;;1.70;;
40254;SDS011;25973;52.368;4.940;2023-03-23T10:39:13;11.27;;;2.13;;
40254;SDS011;25973;52.368;4.940;2023-03-23T10:41:46;11.80;;;1.92;;
40254;SDS011;25973;52.368;4.940;2023-03-23T10:44:16;13.65;;;1.98;;
40254;SDS011;25973;52.368;4.940;2023-03-23T10:49:27;10.80;;;1.85;;
40254;SDS011;25973;52.368;4.940;2023-03-23T10:52:04;10.07;;;1.73;;
40254;SDS011;25973;52.368;4.940;2023-03-23T10:57:31;11.30;;;2.08;;
40254;SDS011;25973;52.368;4.940;2023-03-23T11:00:16;11.95;;;2.03;;
40254;SDS011;25973;52.368;4.940;2023-03-23T11:02:56;9.60;;;2.53;;
40254;SDS011;25973;52.368;4.940;2023-03-23T11:05:41;9.68;;;1.75;;
40254;SDS011;25973;52.368;4.940;2023-03-23T11:08:27;12.07;;;2.35;;
40254;SDS011;25973;52.368;4.940;2023-03-23T11:13:31;20.35;;;3.10;;
40254;SDS011;25973;52.368;4.940;2023-03-23T11:15:58;12.05;;;2.15;;
40254;SDS011;25973;52.368;4.940;2023-03-23T11:18:42;7.28;;;1.60;;
40254;SDS011;25973;52.368;4.940;2023-03-23T11:21:08;11.75;;;2.30;;
40254;SDS011;25973;52.368;4.940;2023-03-23T11:23:38;10.35;;;2.17;;
40254;SDS011;25973;52.368;4.940;2023-03-23T11:28:55;14.90;;;2.78;;
40254;SDS011;25973;52.368;4.940;2023-03-23T11:32:14;17.88;;;2.50;;
40254;SDS011;25973;52.368;4.940;2023-03-23T11:39:28;19.60;;;3.67;;
40254;SDS011;25973;52.368;4.940;2023-03-23T11:41:57;15.63;;;2.03;;
40254;SDS011;25973;52.368;4.940;2023-03-23T11:44:24;14.05;;;3.28;;
40254;SDS011;25973;52.368;4.940;2023-03-23T11:50:26;17.88;;;2.45;;
40254;SDS011;25973;52.368;4.940;2023-03-23T11:55:13;15.27;;;3.25;;
40254;SDS011;25973;52.368;4.940;2023-03-23T11:57:39;13.05;;;1.95;;
40254;SDS011;25973;52.368;4.940;2023-03-23T12:00:13;15.05;;;2.00;;
40254;SDS011;25973;52.368;4.940;2023-03-23T12:06:01;17.58;;;3.00;;
40254;SDS011;25973;52.368;4.940;2023-03-23T12:32:58;11.88;;;1.92;;
40254;SDS011;25973;52.368;4.940;2023-03-23T12:35:54;6.60;;;2.10;;
40254;SDS011;25973;52.368;4.940;2023-03-23T12:38:30;13.10;;;2.28;;
40254;SDS011;25973;52.368;4.940;2023-03-23T12:41:14;9.85;;;1.60;;
40254;SDS011;25973;52.368;4.940;2023-03-23T12:49:10;6.88;;;1.88;;
40254;SDS011;25973;52.368;4.940;2023-03-23T12:51:51;8.23;;;2.03;;
40254;SDS011;25973;52.368;4.940;2023-03-23T12:57:16;15.70;;;2.65;;
40254;SDS011;25973;52.368;4.940;2023-03-23T12:59:59;16.23;;;1.40;;
40254;SDS011;25973;52.368;4.940;2023-03-23T13:05:35;5.93;;;1.50;;
40254;SDS011;25973;52.368;4.940;2023-03-23T13:08:18;6.85;;;2.15;;
40254;SDS011;25973;52.368;4.940;2023-03-23T13:10:48;9.60;;;1.90;;
40254;SDS011;25973;52.368;4.940;2023-03-23T13:13:21;8.18;;;1.80;;
40254;SDS011;25973;52.368;4.940;2023-03-23T13:15:53;13.60;;;2.30;;
40254;SDS011;25973;52.368;4.940;2023-03-23T13:23:52;12.27;;;2.13;;
40254;SDS011;25973;52.368;4.940;2023-03-23T13:26:22;18.35;;;1.85;;
40254;SDS011;25973;52.368;4.940;2023-03-23T13:33:59;13.75;;;1.80;;
40254;SDS011;25973;52.368;4.940;2023-03-23T13:36:29;16.95;;;1.45;;
40254;SDS011;25973;52.368;4.940;2023-03-23T13:38:55;10.52;;;1.48;;
40254;SDS011;25973;52.368;4.940;2023-03-23T13:41:22;12.50;;;1.77;;
40254;SDS011;25973;52.368;4.940;2023-03-23T13:43:48;7.78;;;1.45;;
40254;SDS011;25973;52.368;4.940;2023-03-23T13:48:44;8.63;;;1.70;;
40254;SDS011;25973;52.368;4.940;2023-03-23T14:01:52;14.10;;;2.47;;
40254;SDS011;25973;52.368;4.940;2023-03-23T14:04:19;12.20;;;2.03;;
40254;SDS011;25973;52.368;4.940;2023-03-23T14:06:46;11.02;;;2.05;;
40254;SDS011;25973;52.368;4.940;2023-03-23T14:09:18;16.77;;;2.88;;
40254;SDS011;25973;52.368;4.940;2023-03-23T14:12:05;15.20;;;2.20;;
40254;SDS011;25973;52.368;4.940;2023-03-23T14:14:51;15.07;;;2.38;;
40254;SDS011;25973;52.368;4.940;2023-03-23T14:17:31;11.75;;;1.85;;
40254;SDS011;25973;52.368;4.940;2023-03-23T14:20:00;9.98;;;2.10;;
40254;SDS011;25973;52.368;4.940;2023-03-23T14:22:35;9.95;;;2.17;;
40254;SDS011;25973;52.368;4.940;2023-03-23T14:25:11;13.80;;;2.08;;
40254;SDS011;25973;52.368;4.940;2023-03-23T14:27:39;15.35;;;2.60;;
40254;SDS011;25973;52.368;4.940;2023-03-23T14:30:07;20.58;;;2.15;;
40254;SDS011;25973;52.368;4.940;2023-03-23T14:32:41;10.30;;;1.63;;
40254;SDS011;25973;52.368;4.940;2023-03-23T14:35:29;17.80;;;1.98;;
40254;SDS011;25973;52.368;4.940;2023-03-23T14:38:01;9.38;;;1.45;;
40254;SDS011;25973;52.368;4.940;2023-03-23T14:40:27;17.35;;;1.88;;
40254;SDS011;25973;52.368;4.940;2023-03-23T14:42:54;9.63;;;1.45;;
40254;SDS011;25973;52.368;4.940;2023-03-23T14:45:21;9.85;;;1.88;;
40254;SDS011;25973;52.368;4.940;2023-03-23T14:47:52;9.07;;;1.35;;
40254;SDS011;25973;52.368;4.940;2023-03-23T14:55:48;9.93;;;1.48;;
40254;SDS011;25973;52.368;4.940;2023-03-23T14:58:16;6.82;;;1.45;;
40254;SDS011;25973;52.368;4.940;2023-03-23T15:01:04;11.27;;;1.95;;
40254;SDS011;25973;52.368;4.940;2023-03-23T15:04:33;9.25;;;1.50;;
40254;SDS011;25973;52.368;4.940;2023-03-23T15:06:35;13.80;;;2.40;;
40254;SDS011;25973;52.368;4.940;2023-03-23T15:09:04;8.60;;;1.40;;
40254;SDS011;25973;52.368;4.940;2023-03-23T15:11:35;16.35;;;2.22;;
40254;SDS011;25973;52.368;4.940;2023-03-23T15:14:08;8.65;;;1.70;;
40254;SDS011;25973;52.368;4.940;2023-03-23T15:16:45;11.90;;;2.90;;
40254;SDS011;25973;52.368;4.940;2023-03-23T15:19:17;17.58;;;2.35;;
40254;SDS011;25973;52.368;4.940;2023-03-23T15:21:52;14.63;;;2.28;;
40254;SDS011;25973;52.368;4.940;2023-03-23T15:27:11;8.45;;;2.03;;
40254;SDS011;25973;52.368;4.940;2023-03-23T15:29:49;13.45;;;2.13;;
40254;SDS011;25973;52.368;4.940;2023-03-23T15:32:20;10.82;;;2.28;;
40254;SDS011;25973;52.368;4.940;2023-03-23T15:34:57;11.80;;;2.13;;
40254;SDS011;25973;52.368;4.940;2023-03-23T15:37:29;16.60;;;2.72;;
40254;SDS011;25973;52.368;4.940;2023-03-23T15:39:57;14.95;;;3.17;;
40254;SDS011;25973;52.368;4.940;2023-03-23T15:42:28;14.20;;;1.98;;
40254;SDS011;25973;52.368;4.940;2023-03-23T15:45:02;10.27;;;1.85;;
40254;SDS011;25973;52.368;4.940;2023-03-23T15:47:37;14.68;;;2.17;;
40254;SDS011;25973;52.368;4.940;2023-03-23T15:52:45;11.48;;;1.75;;
40254;SDS011;25973;52.368;4.940;2023-03-23T15:55:24;16.30;;;2.20;;
40254;SDS011;25973;52.368;4.940;2023-03-23T15:57:50;11.75;;;1.63;;
40254;SDS011;25973;52.368;4.940;2023-03-23T16:00:18;14.27;;;2.42;;
40254;SDS011;25973;52.368;4.940;2023-03-23T16:02:45;12.05;;;2.17;;
40254;SDS011;25973;52.368;4.940;2023-03-23T16:05:13;15.85;;;1.85;;
40254;SDS011;25973;52.368;4.940;2023-03-23T16:07:39;17.15;;;2.38;;
40254;SDS011;25973;52.368;4.940;2023-03-23T16:10:05;8.43;;;2.00;;
40254;SDS011;25973;52.368;4.940;2023-03-23T16:12:38;9.30;;;1.88;;
40254;SDS011;25973;52.368;4.940;2023-03-23T16:15:04;17.33;;;2.42;;
40254;SDS011;25973;52.368;4.940;2023-03-23T16:17:30;25.27;;;2.25;;
40254;SDS011;25973;52.368;4.940;2023-03-23T16:19:57;14.98;;;2.50;;
40254;SDS011;25973;52.368;4.940;2023-03-23T16:22:22;15.43;;;2.40;;
40254;SDS011;25973;52.368;4.940;2023-03-23T16:24:48;11.15;;;2.45;;
40254;SDS011;25973;52.368;4.940;2023-03-23T16:27:13;21.23;;;3.05;;
40254;SDS011;25973;52.368;4.940;2023-03-23T16:29:39;12.45;;;2.13;;
40254;SDS011;25973;52.368;4.940;2023-03-23T16:32:04;12.65;;;2.75;;
40254;SDS011;25973;52.368;4.940;2023-03-23T16:34:30;8.20;;;2.55;;
40254;SDS011;25973;52.368;4.940;2023-03-23T16:36:57;11.70;;;1.73;;
40254;SDS011;25973;52.368;4.940;2023-03-23T16:39:23;16.50;;;2.50;;
40254;SDS011;25973;52.368;4.940;2023-03-23T16:41:48;14.10;;;2.17;;
40254;SDS011;25973;52.368;4.940;2023-03-23T16:44:14;13.93;;;2.33;;
40254;SDS011;25973;52.368;4.940;2023-03-23T16:46:40;16.98;;;3.13;;
40254;SDS011;25973;52.368;4.940;2023-03-23T16:49:06;20.83;;;2.30;;
40254;SDS011;25973;52.368;4.940;2023-03-23T16:51:31;14.80;;;2.45;;
40254;SDS011;25973;52.368;4.940;2023-03-23T16:53:57;11.35;;;2.00;;
40254;SDS011;25973;52.368;4.940;2023-03-23T16:56:23;13.25;;;2.78;;
40254;SDS011;25973;52.368;4.940;2023-03-23T16:58:48;14.85;;;2.92;;
40254;SDS011;25973;52.368;4.940;2023-03-23T17:01:14;10.07;;;2.25;;
40254;SDS011;25973;52.368;4.940;2023-03-23T17:03:40;17.05;;;2.90;;
40254;SDS011;25973;52.368;4.940;2023-03-23T17:06:07;11.40;;;2.13;;
40254;SDS011;25973;52.368;4.940;2023-03-23T17:08:32;8.93;;;1.65;;